createdAt,value
2019-04-23T00:01:29.922Z,11.35
2019-04-23T00:03:51.998Z,9.63
2019-04-23T00:06:24.850Z,15.45
2019-04-23T00:13:59.508Z,14.43
2019-04-23T00:16:30.185Z,12.43
2019-04-23T00:18:56.326Z,17.50
2019-04-23T00:24:17.472Z,14.68
2019-04-23T00:26:36.652Z,14.58
2019-04-23T00:29:16.096Z,17.40
2019-04-23T00:31:36.179Z,14.35
2019-04-23T00:37:06.480Z,18.80
2019-04-23T00:39:35.837Z,15.78
2019-04-23T00:41:57.333Z,21.07
2019-04-23T00:44:34.962Z,12.50
2019-04-23T00:47:02.605Z,19.55
2019-04-23T00:49:32.532Z,17.75
2019-04-23T00:52:09.553Z,17.67
2019-04-23T00:54:34.458Z,18.25
2019-04-23T00:57:08.975Z,16.27
2019-04-23T00:59:39.477Z,21.90
2019-04-23T01:02:00.917Z,19.48
2019-04-23T01:04:32.794Z,20.90
2019-04-23T01:07:09.542Z,17.40
2019-04-23T01:09:40.550Z,22.17
2019-04-23T01:12:07.556Z,16.73
2019-04-23T01:14:39.748Z,14.93
2019-04-23T01:17:17.288Z,18.85
2019-04-23T01:21:58.164Z,20.37
2019-04-23T01:24:31.293Z,21.90
2019-04-23T01:30:11.401Z,16.73
2019-04-23T01:32:49.757Z,19.12
2019-04-23T01:40:12.408Z,14.55
2019-04-23T01:42:52.511Z,18.45
2019-04-23T01:45:13.224Z,14.93
2019-04-23T01:47:45.382Z,14.20
2019-04-23T01:50:13.969Z,17.50
2019-04-23T01:52:45.602Z,19.75
2019-04-23T01:55:19.883Z,19.10
2019-04-23T01:57:53.121Z,19.00
2019-04-23T02:00:17.338Z,18.70
2019-04-23T02:02:49.621Z,19.98
2019-04-23T02:05:22.884Z,18.90
2019-04-23T02:07:50.951Z,16.95
2019-04-23T02:10:20.519Z,20.35
2019-04-23T02:15:16.903Z,19.55
2019-04-23T02:17:52.154Z,17.90
2019-04-23T02:20:23.847Z,16.85
2019-04-23T02:25:54.075Z,19.87
2019-04-23T02:43:26.057Z,15.65
2019-04-23T02:48:24.135Z,19.05
2019-04-23T02:53:37.465Z,15.88
2019-04-23T02:58:41.908Z,15.88
2019-04-23T03:01:14.820Z,18.23
2019-04-23T03:03:35.779Z,18.30
2019-04-23T03:08:32.967Z,19.77
2019-04-23T03:11:09.809Z,18.05
2019-04-23T03:13:44.066Z,14.58
2019-04-23T03:16:15.693Z,13.50
2019-04-23T03:18:51.651Z,13.62
2019-04-23T03:21:42.584Z,15.40
2019-04-23T03:26:57.516Z,11.05
2019-04-23T03:39:17.717Z,12.82
2019-04-23T03:41:53.885Z,11.63
2019-04-23T03:44:20.588Z,9.18
2019-04-23T03:49:21.816Z,9.65
2019-04-23T03:54:34.231Z,12.28
2019-04-23T03:57:03.322Z,13.45
2019-04-23T04:02:10.623Z,10.50
2019-04-23T04:07:01.209Z,11.68
2019-04-23T04:12:01.693Z,9.03
2019-04-23T04:14:44.645Z,10.68
2019-04-23T04:16:59.596Z,8.68
2019-04-23T04:24:34.935Z,10.58
2019-04-23T04:27:07.340Z,8.35
2019-04-23T04:29:39.436Z,5.92
2019-04-23T04:32:00.820Z,9.70
2019-04-23T04:39:42.826Z,5.90
2019-04-23T04:44:43.498Z,9.50
2019-04-23T04:47:15.480Z,7.60
2019-04-23T04:52:22.636Z,10.13
2019-04-23T04:54:29.112Z,6.15
2019-04-23T04:59:50.765Z,6.15
2019-04-23T05:04:45.367Z,5.85
2019-04-23T05:07:24.003Z,7.78
2019-04-23T05:12:18.375Z,8.75
2019-04-23T05:14:59.649Z,7.90
2019-04-23T05:17:46.499Z,8.65
2019-04-23T05:20:05.097Z,7.87
2019-04-23T05:22:44.927Z,6.55
2019-04-23T05:24:58.111Z,4.92
2019-04-23T05:27:40.624Z,4.10
2019-04-23T05:30:09.865Z,6.33
2019-04-23T05:32:39.109Z,5.83
2019-04-23T05:35:16.905Z,5.22
2019-04-23T05:37:50.348Z,6.20
2019-04-23T05:40:15.993Z,7.47
2019-04-23T05:42:40.171Z,5.55
2019-04-23T05:45:29.829Z,7.80
2019-04-23T05:47:46.377Z,5.10
2019-04-23T05:50:25.914Z,5.75
2019-04-23T05:52:57.790Z,8.50
2019-04-23T05:55:18.710Z,6.60
2019-04-23T05:57:53.649Z,5.03
2019-04-23T06:00:23.656Z,7.67
2019-04-23T06:03:22.729Z,7.70
2019-04-23T06:05:37.097Z,5.12
2019-04-23T06:08:07.911Z,7.97
2019-04-23T06:10:45.537Z,5.42
2019-04-23T06:13:15.659Z,7.70
2019-04-23T06:15:41.722Z,6.87
2019-04-23T06:18:16.849Z,5.62
2019-04-23T06:20:48.644Z,6.75
2019-04-23T06:23:27.165Z,10.35
2019-04-23T06:28:21.178Z,7.00
2019-04-23T06:30:58.869Z,7.55
2019-04-23T06:33:21.059Z,6.45
2019-04-23T06:35:50.359Z,8.28
2019-04-23T06:40:47.456Z,9.85
2019-04-23T06:43:47.571Z,7.45
2019-04-23T06:46:09.387Z,7.30
2019-04-23T06:48:38.548Z,8.73
2019-04-23T06:51:15.892Z,8.58
2019-04-23T06:53:35.874Z,7.70
2019-04-23T06:56:13.538Z,9.05
2019-04-23T06:58:37.378Z,7.47
2019-04-23T07:01:19.179Z,8.08
2019-04-23T07:03:45.205Z,7.12
2019-04-23T07:09:05.199Z,8.33
2019-04-23T07:11:23.677Z,8.28
2019-04-23T07:13:54.641Z,8.30
2019-04-23T07:16:31.454Z,7.17
2019-04-23T07:21:18.289Z,6.12
2019-04-23T07:23:54.462Z,9.65
2019-04-23T07:28:54.685Z,7.92
2019-04-23T07:31:35.084Z,8.00
2019-04-23T07:41:46.476Z,8.93
2019-04-23T07:44:12.822Z,10.38
2019-04-23T07:47:11.728Z,9.73
2019-04-23T07:49:30.704Z,8.90
2019-04-23T07:52:02.748Z,8.43
2019-04-23T07:54:29.034Z,11.70
2019-04-23T07:57:02.943Z,9.63
2019-04-23T07:59:38.424Z,8.65
2019-04-23T08:02:12.763Z,9.88
2019-04-23T08:04:37.361Z,9.18
2019-04-23T08:07:02.821Z,11.03
2019-04-23T08:09:43.690Z,8.25
2019-04-23T08:12:13.806Z,9.65
2019-04-23T08:14:42.696Z,9.65
2019-04-23T08:17:05.483Z,10.35
2019-04-23T08:19:49.636Z,9.78
2019-04-23T08:22:22.159Z,9.03
2019-04-23T08:24:57.274Z,10.38
2019-04-23T08:27:28.274Z,10.23
2019-04-23T08:30:03.327Z,8.80
2019-04-23T08:32:21.296Z,9.68
2019-04-23T08:35:15.951Z,11.10
2019-04-23T08:37:46.692Z,10.78
2019-04-23T08:40:02.617Z,11.35
2019-04-23T08:50:44.202Z,8.50
2019-04-23T08:53:30.877Z,9.63
2019-04-23T08:56:00.398Z,8.08
2019-04-23T08:58:19.076Z,9.08
2019-04-23T09:00:52.689Z,8.30
2019-04-23T09:05:55.891Z,8.95
2019-04-23T09:10:55.842Z,7.83
2019-04-23T09:13:51.710Z,8.58
2019-04-23T09:20:52.886Z,8.35
2019-04-23T09:23:30.909Z,7.70
2019-04-23T09:25:54.428Z,7.53
2019-04-23T09:28:34.613Z,8.93
2019-04-23T09:31:14.488Z,8.40
2019-04-23T09:34:00.545Z,8.53
2019-04-23T09:36:25.569Z,8.38
2019-04-23T09:38:54.198Z,8.33
2019-04-23T09:41:29.124Z,8.05
2019-04-23T09:44:39.110Z,8.65
2019-04-23T09:46:36.173Z,8.43
2019-04-23T09:54:16.569Z,8.70
2019-04-23T09:56:50.810Z,7.58
2019-04-23T09:59:39.113Z,8.73
2019-04-23T10:01:48.221Z,8.45
2019-04-23T10:04:07.487Z,7.75
2019-04-23T10:06:30.701Z,7.42
2019-04-23T10:09:01.466Z,8.00
2019-04-23T10:11:28.415Z,8.15
2019-04-23T10:13:58.801Z,8.23
2019-04-23T10:16:31.888Z,8.33
2019-04-23T10:18:59.374Z,8.33
2019-04-23T10:21:29.279Z,7.87
2019-04-23T10:23:59.275Z,8.33
2019-04-23T10:26:28.791Z,7.72
2019-04-23T10:29:02.107Z,8.23
2019-04-23T10:31:33.458Z,8.10
2019-04-23T10:34:04.183Z,7.65
2019-04-23T10:36:34.580Z,7.37
2019-04-23T10:39:12.429Z,7.87
2019-04-23T10:41:38.450Z,8.58
2019-04-23T10:44:25.479Z,8.20
2019-04-23T10:47:27.150Z,8.00
2019-04-23T10:52:28.038Z,6.85
2019-04-23T10:57:23.204Z,7.90
2019-04-23T11:00:13.766Z,7.65
2019-04-23T11:05:26.090Z,7.33
2019-04-23T11:07:35.254Z,7.37
2019-04-23T11:10:05.164Z,7.87
2019-04-23T11:12:42.362Z,7.60
2019-04-23T11:17:47.804Z,8.18
2019-04-23T11:20:25.837Z,7.62
2019-04-23T11:27:49.008Z,8.60
2019-04-23T11:38:08.728Z,9.35
2019-04-23T11:40:28.226Z,8.98
2019-04-23T11:42:57.659Z,9.33
2019-04-23T11:45:36.646Z,8.68
2019-04-23T11:48:26.379Z,9.10
2019-04-23T11:50:43.151Z,10.30
2019-04-23T11:52:56.904Z,9.38
2019-04-23T11:55:39.117Z,10.35
2019-04-23T11:58:08.412Z,10.50
2019-04-23T12:00:38.626Z,10.32
2019-04-23T12:03:02.605Z,10.95
2019-04-23T12:06:07.513Z,9.90
2019-04-23T12:09:31.426Z,11.83
2019-04-23T12:11:35.858Z,11.05
2019-04-23T12:13:45.560Z,11.20
2019-04-23T12:16:12.525Z,11.28
2019-04-23T12:18:51.431Z,12.28
2019-04-23T12:21:25.438Z,12.05
2019-04-23T12:26:34.218Z,11.20
2019-04-23T12:28:53.098Z,11.18
2019-04-23T12:31:25.438Z,11.12
2019-04-23T12:33:57.512Z,11.95
2019-04-23T12:39:11.325Z,10.80
2019-04-23T12:41:45.437Z,12.18
2019-04-23T12:44:33.294Z,11.55
2019-04-23T12:46:46.190Z,10.65
2019-04-23T12:49:34.069Z,12.28
2019-04-23T12:51:46.898Z,10.85
2019-04-23T12:54:21.345Z,11.30
2019-04-23T12:56:57.377Z,11.45
2019-04-23T12:59:17.200Z,11.48
2019-04-23T13:01:48.912Z,10.98
2019-04-23T13:04:21.870Z,11.65
2019-04-23T13:06:45.585Z,12.33
2019-04-23T13:09:38.972Z,12.40
2019-04-23T13:11:53.006Z,12.05
2019-04-23T13:14:29.621Z,12.00
2019-04-23T13:19:33.326Z,12.98
2019-04-23T13:22:00.226Z,12.95
2019-04-23T13:24:46.234Z,13.68
2019-04-23T13:27:12.033Z,11.53
2019-04-23T13:29:46.085Z,11.73
2019-04-23T13:32:11.059Z,11.48
2019-04-23T13:34:48.432Z,14.00
2019-04-23T13:37:26.292Z,12.13
2019-04-23T13:39:43.843Z,12.70
2019-04-23T13:42:24.319Z,13.72
2019-04-23T13:44:46.643Z,12.43
2019-04-23T13:47:36.233Z,14.03
2019-04-23T13:49:55.141Z,14.47
2019-04-23T13:52:43.291Z,14.63
2019-04-23T13:57:50.896Z,12.58
2019-04-23T14:05:00.394Z,13.50
2019-04-23T14:07:44.588Z,14.55
2019-04-23T14:10:13.570Z,13.28
2019-04-23T14:12:41.605Z,14.23
2019-04-23T14:20:07.160Z,14.58
2019-04-23T14:25:05.762Z,16.05
2019-04-23T14:27:51.987Z,14.93
2019-04-23T14:30:13.164Z,14.53
2019-04-23T14:32:41.552Z,16.65
2019-04-23T14:35:21.302Z,16.82
2019-04-23T14:37:59.794Z,16.73
2019-04-23T14:40:19.608Z,16.48
2019-04-23T14:42:56.190Z,15.98
2019-04-23T14:48:00.938Z,16.50
2019-04-23T14:50:34.841Z,16.65
2019-04-23T14:53:06.947Z,16.37
2019-04-23T15:00:33.250Z,16.05
2019-04-23T15:03:08.356Z,13.80
2019-04-23T15:05:38.385Z,15.23
2019-04-23T15:07:58.176Z,17.67
2019-04-23T15:10:36.041Z,17.60
2019-04-23T15:13:03.333Z,17.17
2019-04-23T15:15:40.521Z,17.30
2019-04-23T15:18:07.453Z,17.15
2019-04-23T15:20:41.456Z,18.05
2019-04-23T15:23:25.609Z,17.02
2019-04-23T15:26:15.241Z,14.60
2019-04-23T15:28:06.765Z,18.65
2019-04-23T15:30:51.438Z,16.17
2019-04-23T15:33:25.931Z,17.25
2019-04-23T15:36:21.863Z,16.60
2019-04-23T15:38:37.770Z,17.82
2019-04-23T15:40:53.975Z,17.25
2019-04-23T15:43:14.462Z,18.45
2019-04-23T15:45:52.355Z,20.10
2019-04-23T15:48:22.440Z,17.35
2019-04-23T15:50:51.691Z,19.20
2019-04-23T15:53:11.444Z,17.85
2019-04-23T15:55:49.180Z,15.90
2019-04-23T15:58:26.554Z,16.57
2019-04-23T16:01:18.148Z,18.02
2019-04-23T16:03:15.584Z,16.77
2019-04-23T16:05:46.379Z,17.25
2019-04-23T16:08:56.919Z,20.55
2019-04-23T16:11:26.491Z,19.20
2019-04-23T16:14:08.001Z,18.82
2019-04-23T16:16:26.151Z,20.95
2019-04-23T16:19:05.921Z,20.17
2019-04-23T16:21:41.144Z,19.85
2019-04-23T16:24:01.190Z,18.95
2019-04-23T16:26:32.474Z,19.92
2019-04-23T16:31:35.987Z,17.35
2019-04-23T16:34:17.795Z,20.55
2019-04-23T16:36:32.921Z,19.17
2019-04-23T16:39:07.550Z,20.02
2019-04-23T16:41:43.742Z,19.00
2019-04-23T16:44:14.238Z,19.45
2019-04-23T16:46:44.276Z,19.42
2019-04-23T16:49:15.328Z,20.00
2019-04-23T16:51:32.444Z,21.65
2019-04-23T16:54:15.279Z,21.25
2019-04-23T16:56:55.979Z,21.20
2019-04-23T16:59:15.311Z,19.57
2019-04-23T17:01:46.550Z,19.10
2019-04-23T17:04:19.594Z,19.20
2019-04-23T17:06:44.200Z,21.75
2019-04-23T17:09:36.781Z,20.08
2019-04-23T17:11:44.802Z,21.57
2019-04-23T17:14:21.567Z,21.93
2019-04-23T17:27:08.252Z,21.75
2019-04-23T17:29:26.805Z,20.97
2019-04-23T17:31:45.225Z,20.55
2019-04-23T17:34:30.216Z,23.70
2019-04-23T17:39:45.376Z,21.23
2019-04-23T17:42:22.592Z,22.37
2019-04-23T17:45:07.870Z,21.15
2019-04-23T17:47:30.088Z,23.10
2019-04-23T17:52:26.626Z,20.25
2019-04-23T17:55:04.666Z,23.40
2019-04-23T18:00:17.952Z,19.10
2019-04-23T18:10:24.782Z,22.85
2019-04-23T18:12:43.866Z,21.87
2019-04-23T18:15:14.824Z,20.08
2019-04-23T18:17:41.325Z,23.70
2019-04-23T18:20:19.296Z,23.07
2019-04-23T18:22:56.842Z,23.25
2019-04-23T18:27:56.705Z,23.27
2019-04-23T18:30:52.704Z,20.72
2019-04-23T18:34:05.314Z,22.50
2019-04-23T18:36:02.475Z,19.98
2019-04-23T18:38:41.254Z,24.02
2019-04-23T18:43:38.930Z,23.40
2019-04-23T18:46:16.660Z,25.68
2019-04-23T18:51:10.427Z,24.40
2019-04-23T18:53:48.187Z,21.73
2019-04-23T19:06:30.421Z,21.82
2019-04-23T19:11:37.059Z,19.45
2019-04-23T19:13:59.518Z,19.55
2019-04-23T19:16:35.729Z,25.15
2019-04-23T19:19:05.193Z,20.32
2019-04-23T19:22:01.199Z,22.93
2019-04-23T19:23:54.776Z,23.30
2019-04-23T19:26:55.214Z,24.92
2019-04-23T19:29:00.432Z,19.67
2019-04-23T19:31:44.782Z,20.68
2019-04-23T19:39:17.793Z,23.75
2019-04-23T19:46:54.860Z,23.38
2019-04-23T19:49:25.072Z,20.72
2019-04-23T19:54:25.183Z,20.92
2019-04-23T19:56:59.922Z,17.32
2019-04-23T19:59:23.327Z,19.40
2019-04-23T20:01:58.900Z,24.75
2019-04-23T20:04:26.279Z,22.48
2019-04-23T20:09:38.358Z,22.35
2019-04-23T20:11:54.685Z,23.55
2019-04-23T20:14:27.643Z,18.17
2019-04-23T20:17:21.489Z,22.58
2019-04-23T20:19:30.037Z,23.05
2019-04-23T20:21:59.224Z,23.87
2019-04-23T20:27:09.276Z,20.17
2019-04-23T20:34:53.209Z,22.93
2019-04-23T20:37:12.575Z,20.35
2019-04-23T20:39:56.676Z,20.90
2019-04-23T20:42:18.208Z,19.00
2019-04-23T20:44:57.048Z,22.20
2019-04-23T20:47:30.386Z,20.20
2019-04-23T20:49:47.995Z,19.50
2019-04-23T20:52:30.160Z,21.57
2019-04-23T20:57:39.135Z,21.70
2019-04-23T21:03:10.456Z,20.80
2019-04-23T21:07:57.697Z,18.07
2019-04-23T21:12:58.160Z,20.52
2019-04-23T21:17:56.181Z,19.00
2019-04-23T21:22:58.408Z,14.78
2019-04-23T21:25:14.566Z,14.53
2019-04-23T21:27:57.225Z,15.53
2019-04-23T21:30:49.016Z,14.78
2019-04-23T21:33:11.610Z,13.48
2019-04-23T21:36:10.755Z,13.62
2019-04-23T21:38:46.404Z,16.60
2019-04-23T21:46:24.195Z,13.83
2019-04-23T21:49:08.685Z,14.13
2019-04-23T21:51:39.610Z,14.18
2019-04-23T21:53:53.183Z,14.35
2019-04-23T21:56:27.561Z,10.00
2019-04-23T21:58:57.618Z,16.42
2019-04-23T22:04:39.968Z,11.15
2019-04-23T22:09:04.315Z,13.13
2019-04-23T22:11:48.237Z,11.38
2019-04-23T22:14:05.969Z,11.25
2019-04-23T22:16:37.077Z,9.98
2019-04-23T22:19:10.644Z,14.05
2019-04-23T22:21:42.999Z,13.95
2019-04-23T22:29:19.159Z,14.38
2019-04-23T22:31:37.803Z,16.23
2019-04-23T22:36:39.463Z,13.00
2019-04-23T22:41:46.991Z,17.40
2019-04-23T22:49:29.173Z,14.07
2019-04-23T22:51:55.097Z,14.87
2019-04-23T22:54:14.972Z,17.25
2019-04-23T22:56:56.576Z,15.23
2019-04-23T23:02:00.369Z,15.58
2019-04-23T23:04:29.000Z,13.55
2019-04-23T23:07:03.265Z,17.65
2019-04-23T23:12:10.932Z,17.70
2019-04-23T23:14:45.916Z,15.60
2019-04-23T23:16:59.792Z,17.65
2019-04-23T23:19:39.864Z,16.30
2019-04-23T23:27:40.347Z,11.50
2019-04-23T23:32:43.163Z,15.20
2019-04-23T23:35:14.587Z,12.70
2019-04-23T23:37:37.220Z,10.78
2019-04-23T23:40:14.709Z,13.93
2019-04-23T23:42:50.198Z,10.08
2019-04-23T23:47:37.918Z,11.08
2019-04-23T23:50:26.522Z,11.55
2019-04-23T23:52:51.667Z,11.73
2019-04-23T23:55:16.060Z,9.85
2019-04-23T23:57:44.419Z,10.93
